Aérodrome :
LOGIN :

S'inscrire | Disclaimer

   EN    FR    IT 

 










Légende :    VFR   VFR Marginal   IFR   IFR Intensif   IFR Très Intensif
Visi : 
Plafond : 
>= 8 km
>= 3000ft
5 à 8 km
1000 à 3000 ft
1500m à 5 km
500 à 1000 ft
800 à 1500m
200 à 500 ft
< 800m
< 200 ft
Symboles :   Orages  Brouillard  Fortes neiges  Fortes précipitations  Vent > 20 kt
SIGMETs :   Divers  Orages  Givrage  Turbulence  Onde Orograph.  Cendres Volcan.







- Altitude de l'aérodrome : 124 ft
- Code IATA : RNS
- Voir les cartes d'approche


LFRN - Rennes

DERNIER METAR :
  • 220900Z AUTO VRB03KT CAVOK 19/11 Q1021 NOSIG

METARs EXPIRÉS :
  • 220830Z AUTO 12003KT 080V170 CAVOK 18/10 Q1021 NOSIG
  • 220800Z AUTO VRB03KT CAVOK 17/11 Q1021 NOSIG
  • 220730Z AUTO VRB03KT CAVOK 16/11 Q1021 NOSIG
  • 220700Z AUTO VRB02KT CAVOK 14/12 Q1020 NOSIG
  • 220630Z AUTO 00000KT 7000 NSC 11/11 Q1021 NOSIG

TAF TAF LFRN
Valide du 22 à 06h jusqu'au 23 à 06h UTC


220500Z 2206/2306 VRB04KT 3000 BCFG NSC
BECMG 2206/2208 CAVOK
BECMG 2209/2212 SCT040
PROB30
TEMPO 2303/2306 3000 BR BKN003
ATIS : +33 2 99 67 72 50
Pas de NOTAMs connus pour ce terrain.



MET'MAP, la Météo Aéronautique d'un coup d'oeil ! - Copyright ORBIFLY Décembre 2007 - Disclaimer

ORBIFLY MET'MAP TEAM :

Programmation & Développement : Alexandra Zaïnal
Conception & Développement : Baudouin d'Aumeries
Co-Programmation & Développement : Marc-Olivier Méhu
Soutien technique & logistique : Manuel Goepfert

Contact : metmap@orbifly.com




SOURCES & CREDITS :

   NOAA